createdAt,value
2022-08-05T00:00:13.206Z,17.51
2022-08-05T00:02:43.863Z,17.65
2022-08-05T00:05:27.485Z,17.62
2022-08-05T00:08:05.369Z,17.48
2022-08-05T00:10:52.935Z,17.52
2022-08-05T00:13:19.912Z,17.47
2022-08-05T00:15:55.015Z,17.27
2022-08-05T00:18:25.777Z,17.34
2022-08-05T00:20:58.369Z,17.35
2022-08-05T00:23:30.855Z,17.27
2022-08-05T00:26:12.479Z,17.21
2022-08-05T00:28:39.710Z,17.24
2022-08-05T00:31:07.537Z,17.09
2022-08-05T00:34:56.731Z,17.16
2022-08-05T00:37:10.602Z,17.07
2022-08-05T00:39:13.714Z,17.13
2022-08-05T00:41:52.004Z,16.96
2022-08-05T00:44:23.174Z,16.99
2022-08-05T00:46:54.266Z,16.96
2022-08-05T00:49:32.841Z,16.81
2022-08-05T00:52:00.338Z,16.73
2022-08-05T00:54:28.154Z,16.73
2022-08-05T00:56:57.187Z,16.88
2022-08-05T00:59:23.966Z,16.86
2022-08-05T01:01:51.269Z,16.77
2022-08-05T01:04:19.883Z,16.80
2022-08-05T01:06:51.751Z,16.72
2022-08-05T01:09:20.079Z,16.56
2022-08-05T01:11:50.809Z,16.54
2022-08-05T01:14:35.232Z,16.47
2022-08-05T01:17:09.258Z,16.44
2022-08-05T01:20:06.266Z,16.53
2022-08-05T01:23:15.286Z,16.50
2022-08-05T01:26:08.148Z,16.49
2022-08-05T01:28:47.308Z,16.47
2022-08-05T01:31:25.774Z,16.45
2022-08-05T01:34:08.476Z,16.51
2022-08-05T01:36:47.014Z,16.41
2022-08-05T01:39:47.724Z,16.35
2022-08-05T01:42:05.674Z,16.16
2022-08-05T01:44:35.478Z,16.20
2022-08-05T01:47:05.193Z,16.24
2022-08-05T01:50:01.276Z,16.28
2022-08-05T01:52:23.485Z,16.17
2022-08-05T01:54:55.990Z,16.16
2022-08-05T01:58:11.073Z,16.21
2022-08-05T02:00:18.874Z,16.04
2022-08-05T02:02:54.930Z,16.06
2022-08-05T02:05:28.993Z,16.08
2022-08-05T02:08:01.058Z,16.10
2022-08-05T02:10:34.927Z,16.06
2022-08-05T02:13:28.703Z,16.00
2022-08-05T02:16:41.539Z,15.91
2022-08-05T02:19:34.153Z,15.85
2022-08-05T02:22:17.500Z,15.84
2022-08-05T02:25:02.175Z,15.82
2022-08-05T02:27:58.083Z,15.70
2022-08-05T02:30:22.329Z,15.64
2022-08-05T02:32:54.412Z,15.69
2022-08-05T02:35:28.067Z,15.34
2022-08-05T02:38:02.572Z,15.61
2022-08-05T02:40:31.558Z,15.54
2022-08-05T02:43:01.319Z,15.43
2022-08-05T02:45:51.410Z,15.54
2022-08-05T02:48:17.645Z,15.61
2022-08-05T02:50:48.391Z,15.53
2022-08-05T02:53:18.698Z,15.53
2022-08-05T02:55:54.046Z,15.68
2022-08-05T02:58:27.424Z,15.59
2022-08-05T03:00:57.401Z,15.46
2022-08-05T03:03:24.355Z,15.74
2022-08-05T03:06:54.299Z,15.64
2022-08-05T03:08:42.690Z,15.46
2022-08-05T03:11:55.141Z,15.45
2022-08-05T03:14:24.588Z,15.38
2022-08-05T03:16:53.409Z,15.22
2022-08-05T03:19:33.874Z,15.21
2022-08-05T03:22:03.163Z,15.28
2022-08-05T03:24:31.765Z,15.29
2022-08-05T03:27:03.944Z,15.20
2022-08-05T03:29:45.808Z,15.20
2022-08-05T03:32:21.354Z,15.42
2022-08-05T03:34:58.170Z,15.59
2022-08-05T03:37:25.204Z,15.72
2022-08-05T03:39:59.327Z,15.66
2022-08-05T03:42:29.081Z,15.36
2022-08-05T03:44:56.146Z,15.37
2022-08-05T03:47:24.480Z,15.33
2022-08-05T03:49:52.467Z,15.51
2022-08-05T03:52:48.515Z,15.48
2022-08-05T03:56:06.119Z,15.46
2022-08-05T03:58:16.649Z,15.36
2022-08-05T04:00:51.486Z,15.37
2022-08-05T04:03:28.631Z,15.43
2022-08-05T04:05:57.783Z,15.57
2022-08-05T04:08:34.790Z,15.58
2022-08-05T04:11:05.215Z,15.68
2022-08-05T04:13:49.712Z,15.70
2022-08-05T04:16:25.209Z,15.80
2022-08-05T04:18:57.866Z,16.05
2022-08-05T04:22:08.931Z,15.98
2022-08-05T04:24:19.693Z,16.19
2022-08-05T04:26:50.384Z,16.22
2022-08-05T04:29:17.201Z,16.42
2022-08-05T04:31:44.010Z,16.46
2022-08-05T04:34:31.369Z,16.56
2022-08-05T04:36:59.910Z,16.83
2022-08-05T04:39:27.880Z,16.96
2022-08-05T04:41:55.312Z,17.34
2022-08-05T04:44:30.092Z,17.43
2022-08-05T04:47:09.900Z,17.84
2022-08-05T04:50:01.645Z,17.92
2022-08-05T04:52:27.681Z,18.15
2022-08-05T04:54:56.872Z,18.35
2022-08-05T04:57:29.294Z,18.65
2022-08-05T05:00:05.966Z,18.86
2022-08-05T05:02:37.433Z,19.09
2022-08-05T05:05:26.196Z,19.37
2022-08-05T05:08:02.124Z,19.50
2022-08-05T05:10:37.685Z,19.75
2022-08-05T05:13:04.687Z,20.02
2022-08-05T05:15:57.107Z,20.18
2022-08-05T05:18:31.413Z,20.43
2022-08-05T05:21:01.391Z,20.74
2022-08-05T05:24:01.758Z,20.98
2022-08-05T05:26:16.820Z,20.94
2022-08-05T05:28:45.115Z,21.27
2022-08-05T05:31:12.665Z,21.70
2022-08-05T05:33:58.859Z,21.91
2022-08-05T05:36:28.728Z,22.20
2022-08-05T05:38:57.404Z,22.33
2022-08-05T05:41:24.943Z,22.51
2022-08-05T05:43:57.450Z,22.67
2022-08-05T05:46:26.896Z,22.89
2022-08-05T05:48:53.835Z,23.12
2022-08-05T05:51:25.985Z,23.45
2022-08-05T05:53:58.686Z,23.49
2022-08-05T05:56:34.495Z,23.76
2022-08-05T05:59:05.735Z,23.90
2022-08-05T06:01:38.145Z,24.06
2022-08-05T06:04:14.434Z,24.28
2022-08-05T06:06:43.326Z,24.38
2022-08-05T06:09:17.693Z,24.69
2022-08-05T06:12:01.290Z,24.82
2022-08-05T06:14:30.181Z,25.08
2022-08-05T06:16:57.186Z,25.31
2022-08-05T06:19:34.135Z,25.61
2022-08-05T06:22:03.116Z,25.77
2022-08-05T06:24:30.252Z,25.83
2022-08-05T06:26:58.078Z,26.22
2022-08-05T06:29:46.847Z,26.28
2022-08-05T06:32:25.277Z,26.27
2022-08-05T06:34:56.564Z,26.43
2022-08-05T06:37:55.666Z,26.59
2022-08-05T06:40:12.687Z,26.73
2022-08-05T06:42:40.958Z,26.94
2022-08-05T06:45:09.346Z,27.03
2022-08-05T06:48:11.426Z,27.03
2022-08-05T06:50:25.041Z,27.46
2022-08-05T06:53:04.035Z,27.68
2022-08-05T06:55:41.907Z,27.77
2022-08-05T06:58:19.939Z,27.93
2022-08-05T07:00:59.787Z,28.17
2022-08-05T07:03:32.965Z,28.26
2022-08-05T07:06:05.894Z,28.28
2022-08-05T07:08:41.927Z,28.34
2022-08-05T07:11:15.578Z,28.58
2022-08-05T07:14:02.436Z,28.76
2022-08-05T07:17:59.465Z,28.91
2022-08-05T07:22:28.832Z,29.10
2022-08-05T07:24:58.756Z,29.31
2022-08-05T07:27:27.711Z,29.32
2022-08-05T07:30:27.292Z,29.57
2022-08-05T07:33:10.031Z,29.67
2022-08-05T07:36:03.939Z,29.60
2022-08-05T07:38:34.260Z,29.86
2022-08-05T07:42:08.400Z,29.87
2022-08-05T07:43:51.289Z,29.86
2022-08-05T07:46:25.351Z,30.07
2022-08-05T07:49:03.126Z,30.07
2022-08-05T07:51:37.158Z,30.18
2022-08-05T07:54:12.654Z,30.35
2022-08-05T07:57:13.641Z,30.48
2022-08-05T07:59:38.742Z,30.43
2022-08-05T08:02:16.596Z,30.64
2022-08-05T08:04:46.219Z,30.79
2022-08-05T08:07:14.087Z,30.98
2022-08-05T08:09:41.975Z,30.89
2022-08-05T08:12:27.467Z,30.75
2022-08-05T08:15:02.753Z,31.01
2022-08-05T08:17:31.569Z,31.16
2022-08-05T08:20:23.515Z,31.05
2022-08-05T08:22:53.049Z,31.21
2022-08-05T08:25:27.012Z,31.38
2022-08-05T08:28:07.139Z,31.45
2022-08-05T08:30:48.000Z,31.24
2022-08-05T08:33:19.784Z,31.67
2022-08-05T08:35:52.703Z,31.83
2022-08-05T08:38:35.706Z,31.94
2022-08-05T08:41:09.865Z,31.65
2022-08-05T08:45:17.009Z,31.89
2022-08-05T08:46:30.014Z,32.10
2022-08-05T08:49:09.597Z,32.17
2022-08-05T08:52:03.359Z,32.12
2022-08-05T08:54:37.319Z,31.51
2022-08-05T08:57:11.556Z,31.33
2022-08-05T08:59:41.973Z,31.82
2022-08-05T09:02:16.716Z,32.20
2022-08-05T09:04:58.360Z,32.50
2022-08-05T09:07:40.049Z,32.54
2022-08-05T09:10:27.662Z,32.58
2022-08-05T09:12:57.156Z,32.75
2022-08-05T09:15:32.068Z,32.67
2022-08-05T09:18:06.419Z,32.84
2022-08-05T09:20:37.720Z,32.85
2022-08-05T09:23:18.929Z,33.12
2022-08-05T09:26:02.228Z,33.03
2022-08-05T09:28:33.843Z,32.98
2022-08-05T09:31:23.354Z,33.36
2022-08-05T09:34:03.287Z,33.32
2022-08-05T09:36:55.351Z,33.39
2022-08-05T09:39:41.450Z,33.47
2022-08-05T09:42:23.550Z,33.65
2022-08-05T09:44:56.529Z,33.48
2022-08-05T09:47:36.458Z,33.72
2022-08-05T09:50:18.058Z,33.81
2022-08-05T09:53:02.815Z,33.87
2022-08-05T09:55:56.198Z,33.50
2022-08-05T09:58:24.312Z,33.59
2022-08-05T10:00:57.741Z,33.86
2022-08-05T10:03:26.097Z,33.20
2022-08-05T10:06:15.708Z,33.44
2022-08-05T10:08:43.386Z,33.58
2022-08-05T10:11:21.631Z,33.81
2022-08-05T10:13:54.508Z,34.02
2022-08-05T10:16:53.488Z,34.06
2022-08-05T10:19:23.762Z,34.18
2022-08-05T10:22:15.762Z,34.13
2022-08-05T10:24:57.301Z,34.39
2022-08-05T10:27:26.205Z,33.83
2022-08-05T10:31:20.301Z,33.86
2022-08-05T10:33:02.960Z,34.14
2022-08-05T10:35:40.370Z,33.77
2022-08-05T10:38:12.898Z,34.31
2022-08-05T10:40:57.882Z,34.60
2022-08-05T10:43:54.749Z,34.00
2022-08-05T10:46:24.091Z,34.23
2022-08-05T10:49:02.699Z,34.47
2022-08-05T10:51:57.537Z,34.62
2022-08-05T10:55:03.127Z,34.97
2022-08-05T10:57:33.679Z,34.95
2022-08-05T11:00:29.875Z,34.88
2022-08-05T11:03:25.377Z,35.29
2022-08-05T11:06:15.532Z,35.40
2022-08-05T11:09:45.331Z,35.68
2022-08-05T11:12:31.921Z,35.82
2022-08-05T11:15:20.343Z,35.43
2022-08-05T11:18:07.553Z,35.58
2022-08-05T11:20:44.522Z,35.64
2022-08-05T11:23:33.158Z,35.61
2022-08-05T11:26:09.206Z,35.05
2022-08-05T11:28:37.253Z,35.35
2022-08-05T11:31:06.311Z,35.22
2022-08-05T11:33:55.841Z,35.18
2022-08-05T11:36:46.880Z,35.52
2022-08-05T11:39:49.235Z,35.76
2022-08-05T11:42:27.979Z,35.60
2022-08-05T11:45:05.350Z,35.59
2022-08-05T11:47:49.383Z,35.50
2022-08-05T11:50:19.044Z,35.92
2022-08-05T11:52:49.567Z,35.64
2022-08-05T11:55:17.973Z,36.05
2022-08-05T11:58:10.168Z,36.13
2022-08-05T12:00:38.319Z,36.19
2022-08-05T12:03:42.956Z,36.07
2022-08-05T12:06:25.838Z,36.17
2022-08-05T12:08:58.173Z,36.07
2022-08-05T12:11:28.381Z,36.28
2022-08-05T12:14:10.588Z,35.81
2022-08-05T12:16:46.965Z,36.32
2022-08-05T12:20:17.158Z,36.86
2022-08-05T12:22:02.605Z,36.74
2022-08-05T12:24:30.108Z,36.75
2022-08-05T12:26:57.766Z,36.53
2022-08-05T12:29:26.445Z,36.47
2022-08-05T12:31:54.210Z,36.72
2022-08-05T12:34:28.540Z,36.99
2022-08-05T12:36:58.505Z,37.03
2022-08-05T12:39:37.268Z,36.41
2022-08-05T12:42:14.882Z,36.79
2022-08-05T12:44:44.718Z,36.75
2022-08-05T12:47:13.856Z,36.31
2022-08-05T12:50:03.724Z,36.93
2022-08-05T12:52:41.845Z,36.86
2022-08-05T12:55:28.397Z,36.65
2022-08-05T12:58:48.633Z,36.83
2022-08-05T13:02:02.843Z,36.55
2022-08-05T13:03:41.566Z,36.77
2022-08-05T13:06:13.038Z,36.83
2022-08-05T13:08:40.488Z,36.67
2022-08-05T13:11:18.145Z,36.23
2022-08-05T13:14:06.836Z,35.80
2022-08-05T13:16:45.487Z,35.52
2022-08-05T13:19:13.845Z,35.04
2022-08-05T13:21:47.990Z,34.84
2022-08-05T13:24:36.249Z,35.36
2022-08-05T13:27:11.099Z,35.58
2022-08-05T13:29:38.144Z,35.60
2022-08-05T13:32:33.078Z,35.45
2022-08-05T13:35:02.321Z,35.76
2022-08-05T13:37:34.764Z,35.95
2022-08-05T13:40:14.363Z,35.87
2022-08-05T13:42:44.048Z,35.81
2022-08-05T13:45:12.182Z,36.25
2022-08-05T13:48:08.629Z,36.47
2022-08-05T13:50:26.394Z,36.54
2022-08-05T13:52:54.019Z,36.62
2022-08-05T13:55:41.605Z,36.68
2022-08-05T13:58:07.698Z,36.82
2022-08-05T14:00:37.882Z,36.03
2022-08-05T14:03:04.774Z,36.39
2022-08-05T14:06:24.581Z,35.81
2022-08-05T14:08:20.841Z,35.95
2022-08-05T14:10:54.241Z,35.99
2022-08-05T14:13:30.246Z,36.05
2022-08-05T14:16:08.520Z,35.99
2022-08-05T14:18:40.120Z,35.99
2022-08-05T14:22:07.168Z,35.44
2022-08-05T14:23:54.561Z,35.44
2022-08-05T14:26:38.576Z,35.44
2022-08-05T14:29:15.916Z,35.58
2022-08-05T14:32:02.672Z,35.31
2022-08-05T14:34:35.194Z,35.45
2022-08-05T14:37:03.633Z,35.25
2022-08-05T14:39:50.230Z,34.95
2022-08-05T14:42:21.316Z,34.73
2022-08-05T14:44:48.969Z,35.12
2022-08-05T14:47:15.735Z,35.38
2022-08-05T14:49:59.112Z,35.40
2022-08-05T14:52:52.038Z,35.38
2022-08-05T14:55:15.558Z,34.77
2022-08-05T14:57:56.270Z,34.83
2022-08-05T15:00:28.168Z,34.67
2022-08-05T15:02:56.504Z,34.89
2022-08-05T15:05:29.960Z,35.07
2022-08-05T15:08:15.849Z,35.13
2022-08-05T15:10:57.220Z,34.95
2022-08-05T15:13:28.532Z,35.01
2022-08-05T15:16:13.233Z,34.93
2022-08-05T15:18:39.932Z,34.85
2022-08-05T15:21:08.772Z,34.84
2022-08-05T15:23:35.740Z,34.87
2022-08-05T15:26:04.915Z,34.53
2022-08-05T15:28:31.723Z,34.72
2022-08-05T15:30:58.539Z,34.66
2022-08-05T15:34:18.435Z,34.58
2022-08-05T15:36:17.237Z,34.57
2022-08-05T15:38:50.732Z,34.62
2022-08-05T15:41:57.670Z,34.62
2022-08-05T15:44:24.266Z,34.48
2022-08-05T15:46:52.653Z,34.30
2022-08-05T15:49:40.978Z,34.35
2022-08-05T15:52:16.385Z,34.19
2022-08-05T15:54:46.048Z,33.99
2022-08-05T15:57:13.478Z,33.88
2022-08-05T15:59:40.985Z,33.89
2022-08-05T16:02:09.537Z,33.90
2022-08-05T16:04:41.935Z,33.82
2022-08-05T16:07:10.595Z,33.88
2022-08-05T16:09:41.688Z,33.69
2022-08-05T16:12:09.050Z,33.81
2022-08-05T16:14:36.171Z,33.69
2022-08-05T16:17:03.541Z,33.47
2022-08-05T16:20:03.054Z,33.42
2022-08-05T16:22:17.796Z,33.58
2022-08-05T16:24:52.143Z,33.51
2022-08-05T16:27:19.657Z,33.45
2022-08-05T16:30:08.464Z,33.25
2022-08-05T16:32:50.300Z,33.31
2022-08-05T16:35:17.241Z,33.16
2022-08-05T16:38:02.423Z,33.21
2022-08-05T16:40:33.372Z,33.00
2022-08-05T16:43:00.162Z,32.86
2022-08-05T16:46:04.549Z,32.74
2022-08-05T16:48:25.863Z,32.80
2022-08-05T16:51:00.146Z,32.87
2022-08-05T16:53:32.128Z,32.82
2022-08-05T16:56:14.089Z,32.74
2022-08-05T16:58:41.205Z,32.80
2022-08-05T17:01:10.368Z,32.55
2022-08-05T17:03:40.088Z,32.78
2022-08-05T17:06:07.513Z,32.77
2022-08-05T17:08:52.360Z,32.74
2022-08-05T17:11:23.899Z,32.60
2022-08-05T17:14:00.482Z,32.41
2022-08-05T17:16:36.439Z,32.30
2022-08-05T17:19:07.729Z,32.13
2022-08-05T17:21:37.244Z,31.96
2022-08-05T17:24:27.957Z,31.89
2022-08-05T17:26:57.263Z,31.76
2022-08-05T17:29:33.195Z,31.63
2022-08-05T17:32:08.380Z,31.44
2022-08-05T17:34:37.956Z,31.26
2022-08-05T17:37:29.420Z,31.10
2022-08-05T17:39:55.195Z,30.91
2022-08-05T17:42:28.922Z,30.69
2022-08-05T17:44:56.899Z,30.20
2022-08-05T17:47:23.801Z,30.06
2022-08-05T17:50:03.466Z,29.80
2022-08-05T17:52:33.545Z,29.26
2022-08-05T17:55:00.992Z,29.08
2022-08-05T17:57:30.041Z,28.64
2022-08-05T18:00:05.623Z,28.37
2022-08-05T18:02:34.082Z,28.25
2022-08-05T18:05:07.961Z,28.02
2022-08-05T18:07:41.641Z,27.74
2022-08-05T18:10:20.509Z,27.57
2022-08-05T18:12:49.163Z,27.29
2022-08-05T18:15:16.035Z,27.20
2022-08-05T18:18:00.202Z,27.04
2022-08-05T18:20:32.751Z,26.87
2022-08-05T18:23:11.330Z,26.68
2022-08-05T18:25:44.840Z,26.52
2022-08-05T18:28:16.235Z,26.34
2022-08-05T18:30:51.033Z,26.37
2022-08-05T18:33:23.078Z,26.09
2022-08-05T18:36:03.729Z,25.99
2022-08-05T18:38:36.403Z,25.88
2022-08-05T18:42:00.288Z,25.89
2022-08-05T18:43:52.241Z,25.59
2022-08-05T18:46:20.178Z,25.49
2022-08-05T18:48:51.569Z,25.30
2022-08-05T18:52:06.453Z,25.26
2022-08-05T18:54:26.057Z,25.29
2022-08-05T18:56:54.452Z,25.22
2022-08-05T18:59:43.686Z,25.17
2022-08-05T19:02:27.828Z,25.05
2022-08-05T19:05:03.174Z,24.95
2022-08-05T19:07:50.256Z,24.73
2022-08-05T19:10:26.636Z,24.69
2022-08-05T19:12:56.043Z,24.53
2022-08-05T19:15:57.908Z,24.35
2022-08-05T19:18:20.902Z,24.39
2022-08-05T19:20:53.711Z,24.34
2022-08-05T19:24:05.771Z,24.21
2022-08-05T19:26:08.486Z,24.28
2022-08-05T19:28:42.048Z,24.19
2022-08-05T19:31:13.506Z,23.95
2022-08-05T19:33:48.197Z,23.87
2022-08-05T19:36:23.591Z,23.72
2022-08-05T19:38:50.342Z,23.45
2022-08-05T19:41:17.103Z,23.33
2022-08-05T19:44:05.445Z,23.27
2022-08-05T19:46:36.209Z,23.21
2022-08-05T19:49:07.285Z,23.24
2022-08-05T19:52:08.778Z,23.10
2022-08-05T19:54:29.702Z,23.01
2022-08-05T19:57:06.598Z,22.99
2022-08-05T19:59:56.536Z,22.96
2022-08-05T20:02:25.944Z,22.87
2022-08-05T20:04:54.284Z,22.75
2022-08-05T20:07:47.879Z,22.70
2022-08-05T20:10:13.666Z,22.51
2022-08-05T20:12:47.728Z,22.60
2022-08-05T20:15:22.973Z,22.43
2022-08-05T20:18:10.441Z,22.59
2022-08-05T20:20:51.347Z,22.77
2022-08-05T20:23:22.350Z,22.58
2022-08-05T20:25:49.243Z,22.54
2022-08-05T20:28:19.253Z,22.55
2022-08-05T20:30:46.080Z,22.35
2022-08-05T20:33:17.485Z,22.37
2022-08-05T20:35:50.366Z,22.13
2022-08-05T20:38:22.734Z,22.15
2022-08-05T20:40:55.476Z,22.04
2022-08-05T20:43:58.272Z,21.94
2022-08-05T20:46:12.512Z,21.71
2022-08-05T20:48:45.520Z,21.57
2022-08-05T20:51:18.262Z,21.76
2022-08-05T20:53:56.977Z,21.90
2022-08-05T20:56:29.704Z,21.84
2022-08-05T20:59:04.044Z,21.98
2022-08-05T21:01:41.672Z,21.74
2022-08-05T21:04:10.507Z,21.54
2022-08-05T21:06:45.283Z,21.41
2022-08-05T21:09:14.464Z,21.13
2022-08-05T21:12:08.101Z,21.14
2022-08-05T21:14:35.163Z,21.09
2022-08-05T21:17:05.291Z,21.44
2022-08-05T21:19:46.631Z,21.44
2022-08-05T21:22:23.086Z,21.38
2022-08-05T21:24:51.935Z,21.18
2022-08-05T21:27:20.659Z,21.20
2022-08-05T21:29:54.085Z,21.08
2022-08-05T21:32:23.361Z,20.97
2022-08-05T21:34:56.049Z,20.85
2022-08-05T21:37:41.359Z,20.73
2022-08-05T21:40:13.613Z,20.51
2022-08-05T21:42:44.835Z,20.40
2022-08-05T21:45:13.862Z,20.41
2022-08-05T21:47:57.111Z,20.37
2022-08-05T21:50:27.909Z,20.17
2022-08-05T21:52:58.879Z,20.14
2022-08-05T21:56:04.219Z,20.16
2022-08-05T21:58:19.567Z,19.94
2022-08-05T22:00:51.197Z,19.96
2022-08-05T22:03:18.342Z,19.70
2022-08-05T22:06:06.603Z,19.81
2022-08-05T22:08:35.624Z,19.70
2022-08-05T22:11:02.349Z,19.51
2022-08-05T22:14:19.746Z,19.63
2022-08-05T22:16:41.265Z,19.69
2022-08-05T22:19:15.101Z,19.64
2022-08-05T22:21:54.881Z,19.58
2022-08-05T22:24:51.657Z,19.54
2022-08-05T22:28:08.538Z,19.44
2022-08-05T22:30:24.654Z,19.52
2022-08-05T22:32:59.205Z,19.48
2022-08-05T22:35:26.074Z,19.48
2022-08-05T22:38:01.180Z,19.54
2022-08-05T22:40:30.739Z,19.52
2022-08-05T22:42:58.306Z,19.41
2022-08-05T22:45:26.556Z,19.29
2022-08-05T22:48:01.553Z,19.09
2022-08-05T22:50:29.028Z,19.21
2022-08-05T22:52:58.733Z,19.06
2022-08-05T22:55:26.132Z,18.94
2022-08-05T22:57:56.339Z,19.08
2022-08-05T23:00:26.593Z,19.02
2022-08-05T23:02:54.727Z,18.91
2022-08-05T23:05:22.556Z,18.73
2022-08-05T23:07:51.469Z,18.88
2022-08-05T23:10:23.494Z,18.78
2022-08-05T23:12:54.260Z,18.79
2022-08-05T23:15:29.670Z,18.66
2022-08-05T23:18:03.248Z,18.67
2022-08-05T23:20:32.462Z,18.62
2022-08-05T23:22:59.759Z,18.58
2022-08-05T23:25:51.179Z,18.56
2022-08-05T23:28:15.913Z,18.49
2022-08-05T23:30:53.117Z,18.41
2022-08-05T23:34:02.870Z,18.23
2022-08-05T23:36:10.159Z,18.25
2022-08-05T23:38:37.305Z,18.36
2022-08-05T23:41:04.139Z,18.29
2022-08-05T23:44:05.474Z,18.17
2022-08-05T23:46:21.321Z,18.27
2022-08-05T23:49:00.567Z,18.27
2022-08-05T23:51:54.295Z,18.14
2022-08-05T23:54:25.062Z,18.08
2022-08-05T23:56:54.349Z,18.06
2022-08-05T23:59:22.101Z,17.79
